Portada
METAR-TAF:

METAR-TAF

Aeroports :

Aeroport de Tànger Ibn Battuta

Tànger, Marroc

latitud: 35-44N, longitud: 005-54W, altitud: 19 m

Observació

L'informe es va fer fa 18 minuts, a les 18:00 UTC
Vent 4 kt del Oest/Sud-Oest
Temperatura 20°C
Humitat 73%
Pressió 1015 hPa
Visibilitat 10 km o més
Núvols disperses a una alçada de 1300 ft
Núvols disperses a una alçada de 2000 ft

METAR: GMTT 161800Z 25004KT 9999 SCT013 SCT020 20/15 Q1015 NOSIG

Hora: 19:18 (18:18 UTC)

Pronòstic

L'informe es va fer fa 1 hora i 18 minuts, a les 17:00 UTC
Pronòstic vàlid del 16 a les 18 UTC al 17 a les 24 UTC
Vent 4 kt del Oest
Visibilitat 10 km o més
Núvols disperses a una alçada de 1300 ft
Núvols disperses a una alçada de 2000 ft
Probabilitat 30% :
Temporalment
l' 16 a les 21 UTC al 17 a les 09 UTC
Visibilitat: 3000 m
boirina
Temporalment
l' 17 a les 09 UTC al 17 a les 21 UTC
Vent 14 kt del Oest

TAF: GMTT 161700Z 1618/1724 28004KT 9999 SCT013 SCT020 PROB30 TEMPO 1621/1709 3000 BR TEMPO 1709/1721 28014KT

Observacions i pronòstics meteorològics de més de 4000 aeroports (METAR i TAF).

Les estacions disponibles són els punts grocs i vermells al mapa.

Posi el ratolí al punt desitjat per veure el nom de l'estació.

Feu clic per veure les observacions i els pronòstics meteorològics.

Per canviar el mapa: feu clic els botons verds amb una creu de color negre per apropar; al botó verd amb un guió per allunyar la imatge; o en les fletxes verdes per a mapes adjacents.


METAR-TAF: